createdAt,value
2019-06-27T00:02:14.393Z,33.48
2019-06-27T00:04:40.594Z,33.41
2019-06-27T00:07:06.860Z,33.52
2019-06-27T00:09:33.088Z,33.59
2019-06-27T00:11:59.281Z,33.67
2019-06-27T00:14:25.450Z,33.76
2019-06-27T00:16:51.665Z,33.67
2019-06-27T00:19:17.908Z,33.43
2019-06-27T00:21:44.121Z,32.93
2019-06-27T00:24:10.353Z,33.18
2019-06-27T00:26:36.569Z,33.35
2019-06-27T00:29:02.935Z,33.25
2019-06-27T00:31:29.133Z,33.25
2019-06-27T00:33:55.361Z,33.17
2019-06-27T00:36:21.521Z,33.26
2019-06-27T00:38:47.714Z,33.33
2019-06-27T00:41:13.912Z,33.52
2019-06-27T00:43:40.191Z,32.79
2019-06-27T00:46:06.400Z,32.64
2019-06-27T00:48:32.729Z,32.99
2019-06-27T00:50:58.886Z,33.19
2019-06-27T00:53:25.064Z,33.29
2019-06-27T00:55:51.309Z,33.39
2019-06-27T00:58:17.465Z,33.35
2019-06-27T01:00:43.773Z,32.73
2019-06-27T01:03:10.199Z,32.99
2019-06-27T01:05:36.422Z,33.04
2019-06-27T01:08:02.763Z,33.15
2019-06-27T01:10:29.009Z,33.26
2019-06-27T01:12:55.246Z,33.22
2019-06-27T01:15:21.552Z,33.32
2019-06-27T01:17:47.740Z,33.28
2019-06-27T01:20:15.484Z,33.29
2019-06-27T01:22:41.764Z,33.22
2019-06-27T01:25:08.252Z,33.17
2019-06-27T01:27:34.729Z,33.21
2019-06-27T01:30:01.163Z,33.10
2019-06-27T01:32:27.500Z,33.16
2019-06-27T01:34:53.653Z,33.11
2019-06-27T01:37:20.055Z,33.18
2019-06-27T01:39:46.525Z,33.01
2019-06-27T01:42:12.803Z,33.08
2019-06-27T01:44:43.428Z,33.25
2019-06-27T01:47:10.186Z,33.27
2019-06-27T01:49:36.434Z,33.32
2019-06-27T01:52:02.699Z,33.17
2019-06-27T01:54:28.972Z,33.19
2019-06-27T01:56:55.135Z,33.21
2019-06-27T01:59:21.317Z,33.30
2019-06-27T02:01:47.526Z,33.24
2019-06-27T02:04:13.686Z,33.23
2019-06-27T02:06:39.845Z,33.04
2019-06-27T02:09:06.061Z,32.71
2019-06-27T02:11:32.248Z,32.74
2019-06-27T02:13:58.417Z,32.76
2019-06-27T02:16:24.716Z,32.80
2019-06-27T02:18:50.881Z,32.92
2019-06-27T02:21:17.238Z,32.89
2019-06-27T02:23:43.604Z,32.83
2019-06-27T02:26:09.830Z,32.88
2019-06-27T02:28:36.061Z,32.90
2019-06-27T02:31:02.294Z,33.07
2019-06-27T02:33:28.517Z,33.00
2019-06-27T02:35:54.747Z,33.00
2019-06-27T02:38:20.953Z,33.04
2019-06-27T02:40:47.130Z,32.83
2019-06-27T02:43:13.338Z,32.96
2019-06-27T02:45:39.562Z,33.11
2019-06-27T02:48:05.778Z,33.17
2019-06-27T02:50:32.007Z,33.32
2019-06-27T02:52:58.246Z,33.49
2019-06-27T02:55:24.466Z,33.51
2019-06-27T02:57:50.696Z,33.81
2019-06-27T03:00:17.904Z,34.17
2019-06-27T03:02:44.169Z,34.73
2019-06-27T03:05:10.809Z,35.25
2019-06-27T03:07:37.552Z,35.85
2019-06-27T03:10:05.931Z,36.31
2019-06-27T03:12:32.101Z,36.83
2019-06-27T03:14:58.394Z,37.26
2019-06-27T03:17:24.654Z,37.97
2019-06-27T03:19:50.833Z,38.61
2019-06-27T03:22:17.182Z,39.49
2019-06-27T03:24:43.418Z,40.21
2019-06-27T03:27:09.564Z,40.37
2019-06-27T03:29:35.769Z,40.52
2019-06-27T03:32:02.124Z,40.78
2019-06-27T03:34:28.388Z,40.78
2019-06-27T03:36:54.849Z,41.00
2019-06-27T03:39:21.189Z,40.89
2019-06-27T03:41:47.337Z,41.11
2019-06-27T03:44:13.639Z,41.38
2019-06-27T03:46:39.792Z,41.66
2019-06-27T03:49:05.955Z,41.71
2019-06-27T03:51:32.214Z,42.30
2019-06-27T03:53:58.436Z,42.83
2019-06-27T03:56:24.683Z,43.25
2019-06-27T03:59:10.771Z,44.05
2019-06-27T04:01:18.967Z,44.82
2019-06-27T04:03:45.126Z,45.18
2019-06-27T04:06:11.429Z,46.01
2019-06-27T04:08:37.657Z,46.19
2019-06-27T04:11:04.080Z,45.95
2019-06-27T04:13:30.414Z,45.92
2019-06-27T04:15:56.636Z,46.26
2019-06-27T04:18:22.799Z,45.07
2019-06-27T04:20:49.100Z,45.55
2019-06-27T04:23:16.250Z,46.57
2019-06-27T04:25:42.415Z,47.11
2019-06-27T04:28:08.893Z,48.37
2019-06-27T04:30:35.194Z,48.37
2019-06-27T04:33:01.512Z,48.43
2019-06-27T04:35:27.722Z,49.95
2019-06-27T04:37:53.916Z,48.81
2019-06-27T04:40:20.189Z,48.36
2019-06-27T04:42:46.401Z,47.77
2019-06-27T04:45:12.691Z,46.98
2019-06-27T04:47:38.880Z,46.50
2019-06-27T04:50:05.158Z,46.50
2019-06-27T04:52:31.338Z,46.47
2019-06-27T04:54:57.495Z,46.53
2019-06-27T04:57:23.714Z,46.36
2019-06-27T04:59:53.912Z,47.70
2019-06-27T05:02:17.980Z,46.38
2019-06-27T05:04:44.208Z,46.93
2019-06-27T05:07:10.394Z,48.59
2019-06-27T05:09:36.556Z,47.98
2019-06-27T05:12:02.782Z,46.43
2019-06-27T05:14:32.444Z,43.93
2019-06-27T05:16:56.995Z,40.96
2019-06-27T05:19:23.216Z,41.77
2019-06-27T05:21:49.392Z,41.85
2019-06-27T05:24:15.563Z,42.48
2019-06-27T05:26:41.764Z,42.97
2019-06-27T05:29:07.946Z,42.40
2019-06-27T05:31:34.099Z,43.32
2019-06-27T05:34:00.412Z,43.62
2019-06-27T05:36:26.582Z,44.72
2019-06-27T05:38:52.876Z,44.93
2019-06-27T05:41:19.089Z,45.01
2019-06-27T05:43:45.277Z,44.76
2019-06-27T05:46:11.467Z,45.01
2019-06-27T05:48:39.861Z,46.31
2019-06-27T05:51:05.762Z,45.47
2019-06-27T05:53:31.926Z,46.85
2019-06-27T05:55:58.123Z,47.16
2019-06-27T05:58:24.316Z,48.56
2019-06-27T06:00:50.488Z,48.07
2019-06-27T06:03:16.686Z,48.40
2019-06-27T06:05:42.868Z,47.46
2019-06-27T06:08:09.061Z,47.76
2019-06-27T06:10:35.255Z,46.44
2019-06-27T06:13:01.456Z,46.21
2019-06-27T06:15:27.636Z,47.26
2019-06-27T06:17:53.829Z,47.92
2019-06-27T06:20:20.120Z,47.69
2019-06-27T06:22:46.284Z,46.70
2019-06-27T06:25:12.612Z,48.33
2019-06-27T06:27:38.923Z,46.85
2019-06-27T06:30:05.885Z,46.19
2019-06-27T06:32:32.108Z,45.72
2019-06-27T06:34:58.338Z,46.25
2019-06-27T06:37:24.643Z,47.27
2019-06-27T06:39:50.832Z,47.35
2019-06-27T06:42:17.008Z,47.86
2019-06-27T06:44:43.200Z,47.78
2019-06-27T06:47:09.382Z,47.03
2019-06-27T06:49:35.564Z,45.74
2019-06-27T06:52:01.722Z,46.62
2019-06-27T06:54:27.930Z,45.95
2019-06-27T06:56:54.125Z,46.32
2019-06-27T06:59:20.309Z,44.41
2019-06-27T07:01:46.526Z,43.41
2019-06-27T07:04:12.689Z,45.59
2019-06-27T07:06:38.864Z,45.37
2019-06-27T07:09:07.073Z,45.72
2019-06-27T07:11:33.266Z,46.66
2019-06-27T07:13:59.546Z,46.51
2019-06-27T07:16:25.744Z,47.74
2019-06-27T07:18:51.902Z,46.11
2019-06-27T07:21:18.082Z,47.66
2019-06-27T07:23:44.284Z,46.95
2019-06-27T07:26:10.448Z,45.09
2019-06-27T07:28:36.766Z,45.82
2019-06-27T07:31:16.800Z,47.25
2019-06-27T07:33:31.434Z,45.74
2019-06-27T07:35:57.615Z,45.29
2019-06-27T07:38:23.802Z,43.91
2019-06-27T07:40:50.002Z,43.80
2019-06-27T07:43:16.165Z,44.34
2019-06-27T07:45:42.345Z,45.21
2019-06-27T07:48:08.526Z,44.07
2019-06-27T07:50:34.693Z,43.86
2019-06-27T07:53:00.884Z,43.42
2019-06-27T07:55:27.079Z,44.08
2019-06-27T07:57:53.264Z,43.83
2019-06-27T08:00:19.744Z,43.87
2019-06-27T08:02:45.913Z,44.31
2019-06-27T08:05:13.821Z,45.44
2019-06-27T08:07:40.005Z,46.76
2019-06-27T08:10:06.495Z,47.32
2019-06-27T08:12:32.683Z,46.80
2019-06-27T08:14:58.865Z,45.04
2019-06-27T08:17:25.417Z,45.00
2019-06-27T08:19:51.601Z,43.13
2019-06-27T08:22:17.820Z,43.38
2019-06-27T08:24:43.971Z,44.84
2019-06-27T08:27:10.180Z,43.61
2019-06-27T08:29:36.347Z,43.61
2019-06-27T08:32:02.513Z,44.77
2019-06-27T08:34:28.735Z,45.26
2019-06-27T08:36:55.202Z,45.27
2019-06-27T08:39:21.365Z,45.14
2019-06-27T08:41:47.522Z,46.69
2019-06-27T08:44:13.731Z,46.80
2019-06-27T08:46:40.189Z,45.03
2019-06-27T08:49:06.372Z,44.92
2019-06-27T08:51:32.577Z,46.37
2019-06-27T08:53:58.743Z,44.62
2019-06-27T08:56:24.923Z,43.91
2019-06-27T08:58:51.116Z,45.59
2019-06-27T09:01:17.275Z,44.95
2019-06-27T09:03:43.457Z,44.38
2019-06-27T09:06:09.650Z,44.68
2019-06-27T09:08:35.834Z,45.69
2019-06-27T09:11:02.021Z,46.84
2019-06-27T09:13:28.212Z,46.47
2019-06-27T09:15:54.369Z,43.97
2019-06-27T09:18:20.653Z,43.57
2019-06-27T09:20:46.873Z,44.63
2019-06-27T09:23:13.037Z,45.67
2019-06-27T09:25:39.537Z,45.49
2019-06-27T09:28:05.736Z,45.16
2019-06-27T09:30:31.953Z,45.61
2019-06-27T09:32:58.144Z,44.94
2019-06-27T09:35:24.356Z,44.89
2019-06-27T09:37:50.507Z,44.12
2019-06-27T09:40:17.169Z,44.44
2019-06-27T09:42:43.404Z,46.24
2019-06-27T09:45:10.293Z,45.15
2019-06-27T09:47:36.467Z,44.93
2019-06-27T09:50:06.297Z,45.83
2019-06-27T09:52:32.549Z,46.58
2019-06-27T09:54:58.712Z,45.93
2019-06-27T09:57:24.935Z,45.76
2019-06-27T09:59:51.100Z,45.91
2019-06-27T10:02:17.247Z,45.51
2019-06-27T10:04:43.464Z,47.14
2019-06-27T10:07:16.048Z,46.01
2019-06-27T10:09:39.783Z,47.07
2019-06-27T10:12:05.988Z,47.64
2019-06-27T10:14:33.161Z,48.50
2019-06-27T10:16:59.366Z,48.09
2019-06-27T10:19:25.575Z,46.60
2019-06-27T10:21:51.729Z,45.20
2019-06-27T10:24:18.981Z,45.82
2019-06-27T10:26:45.164Z,47.23
2019-06-27T10:29:11.440Z,46.83
2019-06-27T10:31:37.941Z,46.83
2019-06-27T10:34:04.161Z,47.20
2019-06-27T10:36:30.318Z,46.12
2019-06-27T10:38:56.466Z,46.35
2019-06-27T10:41:22.694Z,45.31
2019-06-27T10:43:49.919Z,46.55
2019-06-27T10:46:16.149Z,46.37
2019-06-27T10:48:42.334Z,45.31
2019-06-27T10:51:08.539Z,45.41
2019-06-27T10:53:34.687Z,45.65
2019-06-27T10:56:01.099Z,46.69
2019-06-27T10:58:27.707Z,46.29
2019-06-27T11:00:53.882Z,45.63
2019-06-27T11:03:20.266Z,44.04
2019-06-27T11:05:46.606Z,44.56
2019-06-27T11:08:14.778Z,45.57
2019-06-27T11:10:40.884Z,46.56
2019-06-27T11:13:07.060Z,45.60
2019-06-27T11:15:33.201Z,47.06
2019-06-27T11:17:59.405Z,47.90
2019-06-27T11:20:27.362Z,47.13
2019-06-27T11:22:53.532Z,45.84
2019-06-27T11:25:19.836Z,46.52
2019-06-27T11:27:46.022Z,47.54
2019-06-27T11:30:14.089Z,46.49
2019-06-27T11:32:40.416Z,46.28
2019-06-27T11:35:06.674Z,46.48
2019-06-27T11:37:33.397Z,45.55
2019-06-27T11:39:59.768Z,45.66
2019-06-27T11:42:28.874Z,46.53
2019-06-27T11:44:54.360Z,47.90
2019-06-27T11:47:20.609Z,47.90
2019-06-27T11:49:46.768Z,47.04
2019-06-27T11:52:12.923Z,48.08
2019-06-27T11:54:39.130Z,46.13
2019-06-27T11:57:05.297Z,46.50
2019-06-27T11:59:31.454Z,46.95
2019-06-27T12:01:58.032Z,45.06
2019-06-27T12:04:24.175Z,45.82
2019-06-27T12:06:50.710Z,44.78
2019-06-27T12:09:17.249Z,45.61
2019-06-27T12:11:43.794Z,45.31
2019-06-27T12:14:10.270Z,46.63
2019-06-27T12:16:36.469Z,47.66
2019-06-27T12:19:02.635Z,47.60
2019-06-27T12:21:28.804Z,45.93
2019-06-27T12:23:55.025Z,45.93
2019-06-27T12:26:21.181Z,46.92
2019-06-27T12:28:47.333Z,45.15
2019-06-27T12:31:20.393Z,45.74
2019-06-27T12:33:41.673Z,46.81
2019-06-27T12:36:08.222Z,46.49
2019-06-27T12:38:34.464Z,46.22
2019-06-27T12:41:01.094Z,47.33
2019-06-27T12:43:27.252Z,45.05
2019-06-27T12:45:53.616Z,46.58
2019-06-27T12:48:19.795Z,47.52
2019-06-27T12:50:45.952Z,46.17
2019-06-27T12:53:12.154Z,45.46
2019-06-27T12:55:38.340Z,45.67
2019-06-27T12:58:04.486Z,46.45
2019-06-27T13:00:30.690Z,46.67
2019-06-27T13:02:57.004Z,45.85
2019-06-27T13:05:23.165Z,48.30
2019-06-27T13:07:49.495Z,48.18
2019-06-27T13:10:15.879Z,47.66
2019-06-27T13:12:42.144Z,46.47
2019-06-27T13:15:08.637Z,46.82
2019-06-27T13:17:34.819Z,47.17
2019-06-27T13:20:01.092Z,46.66
2019-06-27T13:22:27.399Z,46.77
2019-06-27T13:24:53.606Z,48.00
2019-06-27T13:27:19.748Z,46.30
2019-06-27T13:29:46.052Z,46.74
2019-06-27T13:32:12.535Z,47.41
2019-06-27T13:34:40.700Z,47.63
2019-06-27T13:37:06.800Z,46.16
2019-06-27T13:39:33.380Z,45.79
2019-06-27T13:41:59.541Z,46.37
2019-06-27T13:44:25.744Z,44.76
2019-06-27T13:46:51.920Z,45.90
2019-06-27T13:49:18.091Z,45.53
2019-06-27T13:51:44.297Z,45.53
2019-06-27T13:54:10.454Z,45.17
2019-06-27T13:56:36.621Z,46.66
2019-06-27T13:59:02.802Z,45.77
2019-06-27T14:01:28.991Z,45.50
2019-06-27T14:03:55.164Z,45.84
2019-06-27T14:06:21.361Z,46.79
2019-06-27T14:08:47.547Z,46.72
2019-06-27T14:11:13.722Z,47.46
2019-06-27T14:13:39.912Z,47.53
2019-06-27T14:16:06.182Z,46.31
2019-06-27T14:18:32.554Z,45.62
2019-06-27T14:20:58.767Z,45.60
2019-06-27T14:23:24.971Z,45.72
2019-06-27T14:25:51.101Z,46.89
2019-06-27T14:28:17.299Z,46.72
2019-06-27T14:30:43.474Z,46.42
2019-06-27T14:33:09.653Z,46.30
2019-06-27T14:35:35.953Z,45.52
2019-06-27T14:38:02.122Z,44.37
2019-06-27T14:40:28.288Z,45.85
2019-06-27T14:42:54.510Z,45.56
2019-06-27T14:45:20.689Z,46.19
2019-06-27T14:47:46.865Z,46.30
2019-06-27T14:50:13.151Z,46.21
2019-06-27T14:52:39.313Z,46.65
2019-06-27T14:55:07.121Z,45.57
2019-06-27T14:57:33.927Z,46.26
2019-06-27T15:00:00.098Z,45.89
2019-06-27T15:02:26.246Z,46.66
2019-06-27T15:04:52.627Z,46.58
2019-06-27T15:07:18.929Z,46.59
2019-06-27T15:09:45.193Z,46.62
2019-06-27T15:12:11.388Z,44.97
2019-06-27T15:14:37.564Z,44.23
2019-06-27T15:17:03.716Z,44.95
2019-06-27T15:19:29.929Z,46.02
2019-06-27T15:21:56.099Z,46.63
2019-06-27T15:24:22.251Z,44.73
2019-06-27T15:26:48.461Z,45.37
2019-06-27T15:29:14.616Z,46.31
2019-06-27T15:31:40.816Z,46.39
2019-06-27T15:34:07.034Z,46.96
2019-06-27T15:36:34.216Z,46.48
2019-06-27T15:39:00.391Z,44.71
2019-06-27T15:41:26.637Z,45.92
2019-06-27T15:43:52.797Z,45.74
2019-06-27T15:46:18.949Z,45.34
2019-06-27T15:48:45.171Z,46.55
2019-06-27T15:51:11.353Z,44.80
2019-06-27T15:53:37.667Z,45.74
2019-06-27T15:56:03.959Z,46.29
2019-06-27T15:58:30.111Z,44.50
2019-06-27T16:00:56.296Z,44.39
2019-06-27T16:03:22.504Z,44.67
2019-06-27T16:05:48.699Z,45.88
2019-06-27T16:08:14.871Z,45.54
2019-06-27T16:10:41.064Z,45.57
2019-06-27T16:13:07.249Z,45.60
2019-06-27T16:15:33.394Z,45.51
2019-06-27T16:17:59.611Z,45.63
2019-06-27T16:20:25.993Z,45.50
2019-06-27T16:22:52.155Z,46.24
2019-06-27T16:25:18.352Z,45.97
2019-06-27T16:27:44.542Z,45.49
2019-06-27T16:30:10.929Z,45.37
2019-06-27T16:32:37.440Z,45.49
2019-06-27T16:35:05.323Z,45.75
2019-06-27T16:37:31.525Z,45.52
2019-06-27T16:39:57.742Z,44.61
2019-06-27T16:42:23.929Z,44.13
2019-06-27T16:44:50.566Z,43.62
2019-06-27T16:47:16.794Z,43.99
2019-06-27T16:49:43.091Z,44.57
2019-06-27T16:52:09.286Z,44.56
2019-06-27T16:54:35.615Z,44.67
2019-06-27T16:57:01.766Z,44.44
2019-06-27T16:59:27.934Z,43.83
2019-06-27T17:01:54.247Z,42.81
2019-06-27T17:04:20.419Z,42.91
2019-06-27T17:06:46.568Z,43.09
2019-06-27T17:09:12.771Z,43.26
2019-06-27T17:11:38.960Z,43.09
2019-06-27T17:14:05.211Z,42.95
2019-06-27T17:16:31.522Z,42.03
2019-06-27T17:18:57.687Z,42.37
2019-06-27T17:21:23.846Z,42.65
2019-06-27T17:23:50.044Z,42.91
2019-06-27T17:26:16.224Z,41.61
2019-06-27T17:28:42.508Z,42.11
2019-06-27T17:31:08.689Z,41.73
2019-06-27T17:33:34.869Z,41.61
2019-06-27T17:36:01.024Z,41.76
2019-06-27T17:38:28.406Z,41.89
2019-06-27T17:40:54.629Z,41.51
2019-06-27T17:43:20.807Z,41.47
2019-06-27T17:45:47.009Z,41.85
2019-06-27T17:48:13.163Z,41.79
2019-06-27T17:50:39.350Z,41.65
2019-06-27T17:53:05.539Z,41.53
2019-06-27T17:55:31.739Z,41.09
2019-06-27T17:57:57.906Z,40.79
2019-06-27T18:00:24.192Z,41.08
2019-06-27T18:02:50.485Z,40.57
2019-06-27T18:05:18.510Z,41.38
2019-06-27T18:07:44.762Z,41.08
2019-06-27T18:10:11.855Z,41.34
2019-06-27T18:12:38.106Z,41.35
2019-06-27T18:15:05.352Z,40.69
2019-06-27T18:17:33.950Z,40.79
2019-06-27T18:19:59.593Z,40.16
2019-06-27T18:22:25.803Z,40.58
2019-06-27T18:24:52.066Z,39.94
2019-06-27T18:27:18.449Z,39.82
2019-06-27T18:29:47.841Z,39.99
2019-06-27T18:32:12.854Z,40.41
2019-06-27T18:34:42.089Z,40.58
2019-06-27T18:37:08.303Z,40.18
2019-06-27T18:39:34.596Z,40.61
2019-06-27T18:42:00.791Z,39.99
2019-06-27T18:44:26.988Z,40.46
2019-06-27T18:46:53.162Z,40.21
2019-06-27T18:49:19.347Z,40.08
2019-06-27T18:51:45.543Z,39.20
2019-06-27T18:54:11.822Z,39.26
2019-06-27T18:56:39.911Z,39.30
2019-06-27T18:59:06.203Z,39.47
2019-06-27T19:01:32.373Z,40.15
2019-06-27T19:03:58.573Z,39.92
2019-06-27T19:06:24.807Z,39.76
2019-06-27T19:08:50.958Z,39.57
2019-06-27T19:11:17.150Z,39.58
2019-06-27T19:13:43.366Z,39.22
2019-06-27T19:16:09.639Z,39.22
2019-06-27T19:18:52.648Z,39.59
2019-06-27T19:21:23.578Z,39.14
2019-06-27T19:24:00.495Z,39.20
2019-06-27T19:26:26.667Z,39.32
2019-06-27T19:28:52.836Z,39.28
2019-06-27T19:31:19.071Z,39.19
2019-06-27T19:33:45.550Z,40.14
2019-06-27T19:36:11.714Z,40.14
2019-06-27T19:38:37.932Z,39.96
2019-06-27T19:41:04.268Z,39.47
2019-06-27T19:43:30.434Z,39.47
2019-06-27T19:45:56.635Z,39.76
2019-06-27T19:48:22.823Z,39.05
2019-06-27T19:50:48.992Z,39.05
2019-06-27T19:53:15.231Z,40.16
2019-06-27T19:55:41.420Z,40.54
2019-06-27T19:58:07.587Z,40.07
2019-06-27T20:00:46.282Z,40.12
2019-06-27T20:03:16.750Z,40.16
2019-06-27T20:05:42.935Z,40.16
2019-06-27T20:08:18.895Z,39.61
2019-06-27T20:10:37.205Z,39.24
2019-06-27T20:13:03.663Z,39.75
2019-06-27T20:15:29.869Z,39.55
2019-06-27T20:17:56.052Z,39.67
2019-06-27T20:20:22.230Z,39.53
2019-06-27T20:22:48.417Z,39.72
2019-06-27T20:25:14.680Z,39.62
2019-06-27T20:27:40.871Z,39.43
2019-06-27T20:30:07.679Z,39.92
2019-06-27T20:32:33.864Z,39.10
2019-06-27T20:35:00.062Z,39.52
2019-06-27T20:37:27.145Z,39.17
2019-06-27T20:39:53.558Z,39.48
2019-06-27T20:42:19.826Z,39.33
2019-06-27T20:44:46.009Z,39.44
2019-06-27T20:47:12.198Z,39.37
2019-06-27T20:49:38.349Z,38.76
2019-06-27T20:52:04.557Z,38.68
2019-06-27T20:54:30.737Z,38.65
2019-06-27T20:56:56.884Z,38.68
2019-06-27T20:59:23.079Z,38.79
2019-06-27T21:01:49.285Z,38.49
2019-06-27T21:04:15.436Z,38.36
2019-06-27T21:06:41.625Z,38.64
2019-06-27T21:09:07.810Z,38.55
2019-06-27T21:11:33.964Z,38.40
2019-06-27T21:14:00.165Z,38.45
2019-06-27T21:16:26.347Z,38.29
2019-06-27T21:18:52.551Z,38.47
2019-06-27T21:21:19.192Z,37.99
2019-06-27T21:23:45.346Z,37.46
2019-06-27T21:26:11.519Z,37.01
2019-06-27T21:28:37.717Z,37.42
2019-06-27T21:31:03.935Z,37.49
2019-06-27T21:33:30.084Z,37.69
2019-06-27T21:35:56.269Z,37.45
2019-06-27T21:38:22.526Z,37.06
2019-06-27T21:40:48.708Z,37.10
2019-06-27T21:43:15.849Z,36.80
2019-06-27T21:45:41.996Z,36.77
2019-06-27T21:48:08.170Z,37.70
2019-06-27T21:50:34.365Z,37.55
2019-06-27T21:53:00.522Z,37.73
2019-06-27T21:55:26.709Z,38.22
2019-06-27T21:57:52.891Z,38.11
2019-06-27T22:00:19.787Z,37.64
2019-06-27T22:02:46.072Z,37.52
2019-06-27T22:05:12.467Z,37.89
2019-06-27T22:07:38.641Z,37.97
2019-06-27T22:10:06.902Z,37.71
2019-06-27T22:12:34.448Z,37.61
2019-06-27T22:15:00.974Z,37.74
2019-06-27T22:17:27.139Z,37.88
2019-06-27T22:19:53.329Z,37.08
2019-06-27T22:22:19.480Z,37.32
2019-06-27T22:24:48.044Z,37.69
2019-06-27T22:27:14.244Z,37.95
2019-06-27T22:29:40.426Z,37.91
2019-06-27T22:32:06.595Z,37.33
2019-06-27T22:34:33.191Z,37.62
2019-06-27T22:37:02.169Z,37.68
2019-06-27T22:39:46.876Z,37.83
2019-06-27T22:42:31.374Z,37.60
2019-06-27T22:45:15.793Z,37.84
2019-06-27T22:48:00.679Z,37.65
2019-06-27T22:50:31.768Z,37.72
2019-06-27T22:53:11.634Z,37.57
2019-06-27T22:55:37.942Z,37.40
2019-06-27T22:58:04.115Z,35.80
2019-06-27T23:00:30.374Z,36.33
2019-06-27T23:02:56.569Z,36.11
2019-06-27T23:05:22.748Z,36.25
2019-06-27T23:07:48.928Z,36.04
2019-06-27T23:10:15.112Z,36.37
2019-06-27T23:12:41.275Z,36.48
2019-06-27T23:15:07.851Z,36.07
2019-06-27T23:17:34.052Z,36.14
2019-06-27T23:20:00.216Z,35.88
2019-06-27T23:22:26.419Z,36.43
2019-06-27T23:24:52.683Z,36.67
2019-06-27T23:27:18.833Z,36.63
2019-06-27T23:29:45.021Z,36.75
2019-06-27T23:32:11.311Z,36.64
2019-06-27T23:34:37.466Z,36.26
2019-06-27T23:37:03.626Z,36.27
2019-06-27T23:39:29.840Z,36.97
2019-06-27T23:41:56.022Z,37.04
2019-06-27T23:44:22.182Z,37.11
2019-06-27T23:46:48.505Z,36.65
2019-06-27T23:49:14.667Z,36.44
2019-06-27T23:51:40.838Z,36.84
2019-06-27T23:54:07.435Z,36.62
2019-06-27T23:56:33.603Z,36.45
2019-06-27T23:58:59.760Z,36.14
